LIPQ/TRS METAR and TAF weather

Enter ICAO airport designator
Station Type Date Time Source
LIPQ METAR 2019/04/25 07:50 UTC NOAA

LIPQ 250750Z VRB02KT 9999 SCT020 19/13 Q1020


Station Type Date Time Source
LIPQ Decoded METAR 2019/04/25 07:50 UTC NOAA

Ronchi Dei Legionari, Italy (LIPQ) 45-49N 013-29E 12M
Apr 25, 2019 - 03:50 AM EDT / 2019.04.25 0750 UTC
Wind: Variable at 2 MPH (2 KT):0
Visibility: greater than 7 mile(s):0
Sky conditions: partly cloudy
Temperature: 66 F (19 C)
Dew Point: 55 F (13 C)
Relative Humidity: 68%
Pressure (altimeter): 30.12 in. Hg (1020 hPa)
ob: LIPQ 250750Z VRB02KT 9999 SCT020 19/13 Q1020
cycle: 8

Station Type Date Time Source
LIPQ TAF 2019/04/25 06:26 UTC NOAA

TAF LIPQ 250500Z 2506/2606 VRB05KT 7000 SCT020 BKN050
TEMPO 2514/2518 RA
TEMPO 2522/2606 4000 BR

Example: see airport list